createdAt,value
2023-03-08T00:00:55.759Z,174.35
2023-03-08T00:03:23.488Z,184.15
2023-03-08T00:05:51.457Z,191.70
2023-03-08T00:08:19.061Z,179.10
2023-03-08T00:13:18.772Z,172.48
2023-03-08T00:15:46.326Z,158.65
2023-03-08T00:18:15.954Z,166.38
2023-03-08T00:20:43.805Z,174.00
2023-03-08T00:23:11.704Z,165.45
2023-03-08T00:25:39.352Z,200.88
2023-03-08T00:28:07.224Z,216.75
2023-03-08T00:30:34.785Z,173.48
2023-03-08T00:33:03.340Z,176.27
2023-03-08T00:35:31.041Z,182.43
2023-03-08T00:37:58.746Z,222.85
2023-03-08T00:40:26.393Z,203.02
2023-03-08T00:42:54.142Z,206.38
2023-03-08T00:45:21.764Z,167.35
2023-03-08T00:47:49.238Z,159.93
2023-03-08T00:50:17.078Z,189.07
2023-03-08T00:52:44.618Z,200.68
2023-03-08T00:55:14.085Z,169.60
2023-03-08T00:57:41.966Z,162.38
2023-03-08T01:00:12.898Z,161.60
2023-03-08T01:02:41.324Z,161.90
2023-03-08T01:05:09.819Z,158.25
2023-03-08T01:07:37.822Z,161.80
2023-03-08T01:10:07.197Z,163.30
2023-03-08T01:12:36.893Z,171.10
2023-03-08T01:15:05.038Z,186.18
2023-03-08T01:17:34.372Z,191.73
2023-03-08T01:20:01.929Z,200.98
2023-03-08T01:22:29.749Z,176.35
2023-03-08T01:24:57.299Z,174.95
2023-03-08T01:27:25.430Z,162.80
2023-03-08T01:29:52.987Z,166.73
2023-03-08T01:32:20.885Z,160.57
2023-03-08T01:34:49.223Z,164.43
2023-03-08T01:37:16.902Z,171.75
2023-03-08T01:39:44.499Z,190.32
2023-03-08T01:42:12.366Z,169.45
2023-03-08T01:45:28.079Z,170.02
2023-03-08T01:47:56.067Z,171.35
2023-03-08T01:50:30.931Z,179.10
2023-03-08T01:52:58.623Z,168.35
2023-03-08T01:55:26.556Z,163.52
2023-03-08T01:57:55.003Z,162.50
2023-03-08T02:00:24.070Z,172.18
2023-03-08T02:03:05.067Z,169.63
2023-03-08T02:05:32.957Z,170.95
2023-03-08T02:08:09.061Z,154.88
2023-03-08T02:10:38.725Z,166.43
2023-03-08T02:13:07.864Z,155.65
2023-03-08T02:15:39.049Z,173.63
2023-03-08T02:18:06.880Z,158.20
2023-03-08T02:20:40.275Z,163.60
2023-03-08T02:23:11.375Z,175.00
2023-03-08T02:25:39.066Z,115.53
2023-03-08T02:28:09.088Z,177.60
2023-03-08T02:30:37.502Z,179.30
2023-03-08T02:33:05.096Z,177.05
2023-03-08T02:35:32.885Z,171.52
2023-03-08T02:38:10.514Z,218.75
2023-03-08T02:40:38.936Z,284.35
2023-03-08T02:43:07.460Z,203.30
2023-03-08T02:45:36.136Z,196.98
2023-03-08T02:48:04.238Z,172.80
2023-03-08T02:50:32.002Z,187.05
2023-03-08T02:52:59.637Z,174.48
2023-03-08T02:55:27.673Z,162.10
2023-03-08T02:57:55.803Z,161.98
2023-03-08T03:00:24.456Z,158.43
2023-03-08T03:02:53.621Z,158.25
2023-03-08T03:05:21.194Z,143.65
2023-03-08T03:07:51.186Z,145.18
2023-03-08T03:10:21.977Z,159.48
2023-03-08T03:12:50.685Z,171.00
2023-03-08T03:15:21.014Z,120.25
2023-03-08T03:17:53.762Z,172.38
2023-03-08T03:20:21.338Z,166.45
2023-03-08T03:22:49.441Z,216.00
2023-03-08T03:25:18.791Z,188.02
2023-03-08T03:27:47.777Z,191.30
2023-03-08T03:30:16.752Z,209.20
2023-03-08T03:32:44.911Z,188.55
2023-03-08T03:35:16.306Z,191.65
2023-03-08T03:37:44.475Z,188.07
2023-03-08T03:40:12.803Z,172.90
2023-03-08T03:42:40.611Z,169.00
2023-03-08T03:45:13.067Z,195.85
2023-03-08T03:47:41.028Z,180.90
2023-03-08T03:50:10.634Z,182.35
2023-03-08T03:53:07.608Z,193.52
2023-03-08T03:55:36.094Z,173.15
2023-03-08T03:58:10.120Z,167.90
2023-03-08T04:00:58.351Z,164.30
2023-03-08T04:03:32.403Z,181.65
2023-03-08T04:06:17.592Z,177.45
2023-03-08T04:08:52.620Z,163.10
2023-03-08T04:11:25.366Z,165.40
2023-03-08T04:13:53.318Z,164.38
2023-03-08T04:16:30.166Z,171.73
2023-03-08T04:19:02.780Z,161.60
2023-03-08T04:21:32.227Z,165.60
2023-03-08T04:24:00.885Z,150.15
2023-03-08T04:26:32.634Z,162.65
2023-03-08T04:29:06.210Z,155.80
2023-03-08T04:31:37.214Z,160.27
2023-03-08T04:34:09.983Z,149.10
2023-03-08T04:36:39.022Z,153.18
2023-03-08T04:39:07.574Z,145.88
2023-03-08T04:41:40.148Z,143.13
2023-03-08T04:46:56.497Z,146.38
2023-03-08T04:49:31.448Z,131.15
2023-03-08T04:52:02.753Z,141.10
2023-03-08T04:54:34.522Z,137.63
2023-03-08T04:57:12.343Z,142.18
2023-03-08T04:59:40.547Z,149.32
2023-03-08T05:02:09.064Z,155.50
2023-03-08T05:04:38.178Z,166.82
2023-03-08T05:07:08.788Z,168.73
2023-03-08T05:09:37.634Z,199.20
2023-03-08T05:12:05.929Z,218.25
2023-03-08T05:14:53.910Z,272.52
2023-03-08T05:17:22.176Z,325.77
2023-03-08T05:19:55.864Z,292.73
2023-03-08T05:22:31.119Z,321.40
2023-03-08T05:24:59.140Z,312.98
2023-03-08T05:27:27.875Z,279.05
2023-03-08T05:29:56.325Z,230.15
2023-03-08T05:32:27.440Z,225.25
2023-03-08T05:34:57.529Z,196.18
2023-03-08T05:37:34.647Z,189.95
2023-03-08T05:40:06.512Z,194.07
2023-03-08T05:42:37.836Z,206.77
2023-03-08T05:45:07.263Z,212.50
2023-03-08T05:47:39.177Z,216.25
2023-03-08T05:50:09.988Z,176.38
2023-03-08T05:52:42.659Z,169.07
2023-03-08T05:55:20.368Z,161.48
2023-03-08T05:57:58.593Z,160.23
2023-03-08T06:00:26.487Z,163.25
2023-03-08T06:03:04.021Z,178.13
2023-03-08T06:05:34.688Z,188.35
2023-03-08T06:10:46.109Z,213.48
2023-03-08T06:13:15.479Z,225.10
2023-03-08T06:15:44.580Z,232.93
2023-03-08T06:18:16.475Z,230.13
2023-03-08T06:21:02.186Z,247.75
2023-03-08T06:23:32.079Z,254.38
2023-03-08T06:25:59.889Z,247.23
2023-03-08T06:28:28.609Z,243.18
2023-03-08T06:30:57.436Z,247.65
2023-03-08T06:33:30.103Z,288.92
2023-03-08T06:36:03.281Z,308.05
2023-03-08T06:38:33.545Z,306.38
2023-03-08T06:41:01.236Z,262.70
2023-03-08T06:43:29.361Z,265.73
2023-03-08T06:45:57.146Z,226.35
2023-03-08T06:48:29.140Z,230.30
2023-03-08T06:50:56.771Z,203.48
2023-03-08T06:53:24.488Z,173.50
2023-03-08T06:55:57.740Z,139.68
2023-03-08T06:58:25.516Z,135.95
2023-03-08T07:00:55.216Z,141.95
2023-03-08T07:03:23.307Z,155.95
2023-03-08T07:05:50.847Z,139.65
2023-03-08T07:08:18.471Z,159.57
2023-03-08T07:10:46.205Z,144.88
2023-03-08T07:13:15.465Z,143.13
2023-03-08T07:15:43.139Z,150.73
2023-03-08T07:18:13.586Z,153.70
2023-03-08T07:20:42.084Z,148.75
2023-03-08T07:23:09.783Z,151.20
2023-03-08T07:25:40.533Z,152.88
2023-03-08T07:28:08.317Z,155.65
2023-03-08T07:30:35.829Z,148.90
2023-03-08T07:33:05.727Z,149.95
2023-03-08T07:35:33.276Z,164.38
2023-03-08T07:38:00.960Z,161.15
2023-03-08T07:40:28.617Z,143.20
2023-03-08T07:42:56.331Z,147.52
2023-03-08T07:45:38.513Z,113.53
2023-03-08T07:48:06.800Z,162.93
2023-03-08T07:50:34.825Z,122.32
2023-03-08T07:53:04.526Z,154.70
2023-03-08T07:55:32.283Z,111.43
2023-03-08T07:58:04.125Z,144.07
2023-03-08T08:00:32.519Z,130.35
2023-03-08T08:03:00.188Z,99.72
2023-03-08T08:05:28.259Z,96.75
2023-03-08T08:07:56.527Z,74.30
2023-03-08T08:10:24.130Z,77.18
2023-03-08T08:12:52.928Z,74.38
2023-03-08T08:15:21.097Z,82.43
2023-03-08T08:17:51.470Z,94.75
2023-03-08T08:20:19.145Z,154.63
2023-03-08T08:22:46.830Z,103.25
2023-03-08T08:25:15.408Z,75.47
2023-03-08T08:27:43.279Z,102.97
2023-03-08T08:30:13.621Z,86.28
2023-03-08T08:32:41.569Z,88.45
2023-03-08T08:35:09.579Z,68.90
2023-03-08T08:37:37.308Z,80.45
2023-03-08T08:40:08.747Z,101.32
2023-03-08T08:42:39.601Z,83.40
2023-03-08T08:45:08.782Z,66.80
2023-03-08T08:47:36.426Z,73.07
2023-03-08T08:50:05.225Z,73.22
2023-03-08T08:52:33.247Z,56.92
2023-03-08T08:55:01.894Z,65.75
2023-03-08T08:57:29.840Z,56.60
2023-03-08T08:59:57.520Z,66.43
2023-03-08T09:02:25.210Z,60.08
2023-03-08T09:04:53.609Z,61.00
2023-03-08T09:07:21.735Z,109.35
2023-03-08T09:09:49.433Z,72.43
2023-03-08T09:12:22.594Z,80.45
2023-03-08T09:14:51.448Z,56.70
2023-03-08T09:17:19.484Z,60.08
2023-03-08T09:19:48.481Z,58.35
2023-03-08T09:22:16.456Z,53.35
2023-03-08T09:24:45.977Z,54.83
2023-03-08T09:27:15.074Z,49.25
2023-03-08T09:29:43.102Z,50.92
2023-03-08T09:32:10.738Z,50.42
2023-03-08T09:34:38.802Z,53.78
2023-03-08T09:37:08.360Z,55.03
2023-03-08T09:39:36.034Z,58.97
2023-03-08T09:42:05.170Z,60.22
2023-03-08T09:44:54.881Z,58.20
2023-03-08T09:47:32.067Z,57.83
2023-03-08T09:50:12.062Z,46.35
2023-03-08T09:53:06.225Z,34.08
2023-03-08T09:55:35.489Z,44.33
2023-03-08T09:58:16.473Z,33.50
2023-03-08T10:00:44.390Z,34.20
2023-03-08T10:03:50.547Z,28.50
2023-03-08T10:06:36.760Z,32.33
2023-03-08T10:09:14.487Z,29.45
2023-03-08T10:12:01.192Z,28.75
2023-03-08T10:14:35.282Z,31.42
2023-03-08T10:17:05.955Z,36.08
2023-03-08T10:19:37.784Z,31.52
2023-03-08T10:22:28.330Z,29.98
2023-03-08T10:25:01.822Z,33.78
2023-03-08T10:27:34.987Z,30.70
2023-03-08T10:30:14.450Z,31.60
2023-03-08T10:32:46.336Z,37.83
2023-03-08T10:35:14.035Z,27.75
2023-03-08T10:37:50.839Z,57.70
2023-03-08T10:40:21.437Z,34.00
2023-03-08T10:42:53.916Z,33.93
2023-03-08T10:45:22.532Z,27.92
2023-03-08T10:48:01.285Z,25.27
2023-03-08T10:50:30.604Z,23.08
2023-03-08T10:53:14.792Z,26.27
2023-03-08T10:55:50.318Z,22.30
2023-03-08T10:58:35.680Z,36.15
2023-03-08T11:01:22.358Z,24.88
2023-03-08T11:04:07.257Z,28.00
2023-03-08T11:06:37.568Z,17.70
2023-03-08T11:09:19.958Z,30.80
2023-03-08T11:11:47.638Z,40.90
2023-03-08T11:14:15.196Z,19.67
2023-03-08T11:16:55.343Z,27.50
2023-03-08T11:19:46.146Z,34.75
2023-03-08T11:22:32.277Z,27.57
2023-03-08T11:25:09.212Z,30.30
2023-03-08T11:27:58.716Z,22.33
2023-03-08T11:30:38.271Z,24.58
2023-03-08T11:33:20.060Z,23.98
2023-03-08T11:36:23.193Z,22.95
2023-03-08T11:39:11.250Z,45.92
2023-03-08T11:41:49.455Z,68.00
2023-03-08T11:44:56.329Z,31.17
2023-03-08T11:47:44.147Z,72.63
2023-03-08T11:50:41.523Z,113.32
2023-03-08T11:53:28.191Z,22.98
2023-03-08T11:56:17.841Z,31.20
2023-03-08T11:59:07.254Z,42.55
2023-03-08T12:02:06.663Z,15.65
2023-03-08T12:04:44.166Z,23.80
2023-03-08T12:07:28.264Z,21.10
2023-03-08T12:10:00.688Z,17.98
2023-03-08T12:12:35.518Z,24.95
2023-03-08T12:15:41.008Z,20.35
2023-03-08T12:18:34.238Z,23.15
2023-03-08T12:21:49.240Z,26.05
2023-03-08T12:24:44.795Z,15.60
2023-03-08T12:27:27.434Z,23.00
2023-03-08T12:30:01.162Z,18.98
2023-03-08T12:32:43.230Z,22.95
2023-03-08T12:35:26.853Z,26.13
2023-03-08T12:38:18.324Z,18.42
2023-03-08T12:40:50.839Z,17.27
2023-03-08T12:43:21.334Z,16.17
2023-03-08T12:45:57.560Z,18.63
2023-03-08T12:48:44.586Z,16.67
2023-03-08T12:51:12.179Z,16.92
2023-03-08T12:53:49.179Z,21.70
2023-03-08T12:56:34.859Z,15.90
2023-03-08T12:59:24.019Z,11.75
2023-03-08T13:01:57.844Z,14.52
2023-03-08T13:04:41.455Z,18.00
2023-03-08T13:07:25.940Z,17.52
2023-03-08T13:10:21.276Z,17.65
2023-03-08T13:12:48.763Z,16.80
2023-03-08T13:15:19.561Z,18.48
2023-03-08T13:18:05.907Z,28.10
2023-03-08T13:20:41.645Z,19.00
2023-03-08T13:23:16.189Z,15.77
2023-03-08T13:26:00.605Z,20.95
2023-03-08T13:28:46.567Z,21.55
2023-03-08T13:31:17.867Z,28.70
2023-03-08T13:33:48.806Z,23.13
2023-03-08T13:36:27.033Z,35.78
2023-03-08T13:39:04.260Z,37.22
2023-03-08T13:41:33.649Z,39.90
2023-03-08T13:44:08.268Z,45.35
2023-03-08T13:46:37.485Z,35.42
2023-03-08T13:49:15.543Z,28.02
2023-03-08T13:51:43.852Z,22.17
2023-03-08T13:54:16.594Z,37.00
2023-03-08T13:56:44.386Z,25.30
2023-03-08T13:59:20.417Z,25.33
2023-03-08T14:01:49.677Z,38.42
2023-03-08T14:04:24.042Z,29.67
2023-03-08T14:06:57.545Z,30.27
2023-03-08T14:09:25.986Z,21.92
2023-03-08T14:12:04.840Z,32.05
2023-03-08T14:14:40.715Z,18.75
2023-03-08T14:17:27.252Z,58.08
2023-03-08T14:20:00.756Z,101.97
2023-03-08T14:22:39.219Z,29.67
2023-03-08T14:25:20.689Z,65.15
2023-03-08T14:27:48.501Z,49.00
2023-03-08T14:30:18.579Z,36.15
2023-03-08T14:33:14.493Z,29.25
2023-03-08T14:35:53.640Z,19.90
2023-03-08T14:38:29.260Z,37.83
2023-03-08T14:40:57.058Z,31.55
2023-03-08T14:43:25.625Z,25.65
2023-03-08T14:45:57.990Z,29.77
2023-03-08T14:48:30.020Z,24.23
2023-03-08T14:51:05.528Z,19.67
2023-03-08T14:53:38.894Z,18.80
2023-03-08T14:56:16.837Z,18.33
2023-03-08T14:58:49.320Z,26.77
2023-03-08T15:01:29.080Z,17.88
2023-03-08T15:03:56.956Z,22.67
2023-03-08T15:06:27.889Z,21.27
2023-03-08T15:08:55.599Z,25.27
2023-03-08T15:11:23.718Z,25.50
2023-03-08T15:13:51.662Z,25.65
2023-03-08T15:16:19.511Z,32.38
2023-03-08T15:18:47.121Z,22.38
2023-03-08T15:21:15.752Z,33.35
2023-03-08T15:23:44.870Z,26.13
2023-03-08T15:26:14.490Z,27.45
2023-03-08T15:28:42.061Z,28.65
2023-03-08T15:31:09.728Z,26.17
2023-03-08T15:33:37.460Z,25.30
2023-03-08T15:36:05.813Z,28.85
2023-03-08T15:38:33.530Z,27.95
2023-03-08T15:41:05.737Z,28.10
2023-03-08T15:43:33.747Z,32.90
2023-03-08T15:46:01.306Z,32.20
2023-03-08T15:48:28.857Z,30.55
2023-03-08T15:50:57.386Z,30.33
2023-03-08T15:53:35.295Z,30.55
2023-03-08T15:56:03.409Z,37.35
2023-03-08T15:58:31.885Z,35.25
2023-03-08T16:00:59.428Z,34.20
2023-03-08T16:03:30.878Z,27.95
2023-03-08T16:05:59.957Z,30.30
2023-03-08T16:08:29.610Z,33.85
2023-03-08T16:11:03.838Z,34.17
2023-03-08T16:13:33.097Z,29.10
2023-03-08T16:16:01.389Z,30.77
2023-03-08T16:18:29.811Z,36.88
2023-03-08T16:20:58.322Z,31.85
2023-03-08T16:23:26.314Z,37.63
2023-03-08T16:26:14.718Z,33.17
2023-03-08T16:28:43.902Z,38.92
2023-03-08T16:31:11.499Z,39.30
2023-03-08T16:33:39.880Z,43.13
2023-03-08T16:36:08.010Z,43.15
2023-03-08T16:38:39.115Z,34.22
2023-03-08T16:41:13.325Z,41.60
2023-03-08T16:43:47.381Z,53.80
2023-03-08T16:46:17.489Z,44.25
2023-03-08T16:48:49.408Z,47.88
2023-03-08T16:53:45.340Z,43.10
2023-03-08T16:56:19.669Z,37.30
2023-03-08T16:58:47.347Z,59.28
2023-03-08T17:01:16.722Z,118.45
2023-03-08T17:03:44.348Z,56.03
2023-03-08T17:06:13.652Z,57.33
2023-03-08T17:08:41.290Z,41.80
2023-03-08T17:11:18.981Z,36.42
2023-03-08T17:13:52.127Z,43.05
2023-03-08T17:16:28.481Z,44.47
2023-03-08T17:18:56.751Z,41.40
2023-03-08T17:21:27.860Z,50.45
2023-03-08T17:26:23.655Z,79.85
2023-03-08T17:28:54.025Z,106.72
2023-03-08T17:31:23.049Z,45.45
2023-03-08T17:33:51.473Z,43.55
2023-03-08T17:36:21.566Z,51.17
2023-03-08T17:41:26.062Z,53.83
2023-03-08T17:43:54.051Z,56.80
2023-03-08T17:46:23.472Z,50.47
2023-03-08T17:48:51.716Z,49.63
2023-03-08T17:51:21.284Z,47.00
2023-03-08T17:53:49.362Z,38.13
2023-03-08T17:56:20.151Z,45.13
2023-03-08T17:58:48.536Z,42.67
2023-03-08T18:01:18.305Z,39.30
2023-03-08T18:03:46.092Z,40.85
2023-03-08T18:06:25.134Z,29.35
2023-03-08T18:08:52.869Z,33.50
2023-03-08T18:11:20.694Z,33.42
2023-03-08T18:13:49.339Z,33.25
2023-03-08T18:16:17.723Z,25.20
2023-03-08T18:18:51.422Z,26.52
2023-03-08T18:21:19.736Z,49.00
2023-03-08T18:23:47.760Z,54.60
2023-03-08T18:26:17.202Z,23.83
2023-03-08T18:28:44.872Z,22.02
2023-03-08T18:31:20.839Z,22.85
2023-03-08T18:33:48.458Z,24.13
2023-03-08T18:36:25.247Z,26.60
2023-03-08T18:38:52.827Z,16.55
2023-03-08T18:41:27.660Z,30.42
2023-03-08T18:44:01.477Z,171.68
2023-03-08T18:46:30.079Z,30.02
2023-03-08T18:49:02.031Z,38.72
2023-03-08T18:51:30.620Z,19.60
2023-03-08T18:53:58.577Z,24.27
2023-03-08T18:57:22.541Z,31.95
2023-03-08T19:00:02.506Z,22.52
2023-03-08T19:02:31.482Z,26.40
2023-03-08T19:04:59.175Z,26.33
2023-03-08T19:07:26.990Z,30.20
2023-03-08T19:09:55.475Z,23.80
2023-03-08T19:12:23.126Z,30.38
2023-03-08T19:14:52.548Z,43.67
2023-03-08T19:17:20.687Z,25.08
2023-03-08T19:19:48.451Z,32.35
2023-03-08T19:22:20.269Z,24.25
2023-03-08T19:24:48.582Z,28.50
2023-03-08T19:27:16.360Z,38.35
2023-03-08T19:29:44.221Z,26.58
2023-03-08T19:32:14.982Z,25.67
2023-03-08T19:34:44.829Z,23.48
2023-03-08T19:37:13.478Z,29.42
2023-03-08T19:39:41.284Z,26.02
2023-03-08T19:42:11.546Z,37.28
2023-03-08T19:44:40.279Z,24.92
2023-03-08T19:47:10.300Z,42.55
2023-03-08T19:49:40.088Z,37.85
2023-03-08T19:52:07.924Z,41.17
2023-03-08T19:54:39.466Z,27.50
2023-03-08T19:57:07.152Z,49.70
2023-03-08T19:59:38.820Z,50.47
2023-03-08T20:02:07.489Z,26.20
2023-03-08T20:04:36.672Z,47.97
2023-03-08T20:07:05.039Z,54.95
2023-03-08T20:09:33.723Z,45.10
2023-03-08T20:12:01.373Z,28.55
2023-03-08T20:14:30.276Z,83.38
2023-03-08T20:16:59.444Z,88.10
2023-03-08T20:19:32.013Z,56.60
2023-03-08T20:22:00.359Z,62.40
2023-03-08T20:24:35.473Z,83.63
2023-03-08T20:27:04.352Z,42.17
2023-03-08T20:29:31.966Z,40.72
2023-03-08T20:31:59.738Z,45.42
2023-03-08T20:34:27.633Z,40.40
2023-03-08T20:36:56.419Z,39.50
2023-03-08T20:39:24.387Z,39.60
2023-03-08T20:41:52.116Z,32.05
2023-03-08T20:44:19.965Z,42.55
2023-03-08T20:46:48.746Z,26.55
2023-03-08T20:49:16.970Z,18.73
2023-03-08T20:51:44.599Z,18.42
2023-03-08T20:54:12.624Z,28.25
2023-03-08T20:56:41.453Z,20.13
2023-03-08T20:59:09.013Z,21.95
2023-03-08T21:01:42.174Z,173.80
2023-03-08T21:04:10.005Z,23.90
2023-03-08T21:06:37.995Z,20.50
2023-03-08T21:09:05.686Z,24.80
2023-03-08T21:11:33.315Z,21.40
2023-03-08T21:14:00.902Z,16.55
2023-03-08T21:16:28.906Z,22.08
2023-03-08T21:18:58.939Z,19.95
2023-03-08T21:21:39.715Z,18.38
2023-03-08T21:24:12.500Z,19.90
2023-03-08T21:26:40.613Z,27.75
2023-03-08T21:29:11.104Z,27.42
2023-03-08T21:31:52.368Z,24.95
2023-03-08T21:34:21.052Z,29.27
2023-03-08T21:36:49.105Z,27.50
2023-03-08T21:39:17.028Z,32.45
2023-03-08T21:41:46.007Z,22.55
2023-03-08T21:44:17.936Z,24.65
2023-03-08T21:46:46.762Z,24.52
2023-03-08T21:49:22.091Z,19.45
2023-03-08T21:51:50.518Z,28.48
2023-03-08T21:54:18.819Z,19.17
2023-03-08T21:56:47.304Z,19.92
2023-03-08T21:59:16.904Z,27.58
2023-03-08T22:01:48.900Z,22.25
2023-03-08T22:04:17.171Z,23.88
2023-03-08T22:06:44.889Z,21.58
2023-03-08T22:09:14.071Z,22.80
2023-03-08T22:11:41.865Z,24.40
2023-03-08T22:14:10.261Z,24.27
2023-03-08T22:16:40.105Z,23.15
2023-03-08T22:19:07.994Z,28.00
2023-03-08T22:21:35.698Z,26.92
2023-03-08T22:24:10.240Z,29.65
2023-03-08T22:26:37.918Z,30.45
2023-03-08T22:29:05.808Z,28.15
2023-03-08T22:31:33.638Z,27.60
2023-03-08T22:34:02.046Z,28.17
2023-03-08T22:36:31.130Z,35.75
2023-03-08T22:38:58.740Z,24.42
2023-03-08T22:41:27.532Z,28.30
2023-03-08T22:43:55.331Z,26.17
2023-03-08T22:46:26.109Z,21.73
2023-03-08T22:48:55.744Z,28.40
2023-03-08T22:51:23.595Z,29.67
2023-03-08T22:53:51.348Z,23.48
2023-03-08T22:56:29.732Z,24.40
2023-03-08T22:58:58.210Z,25.80
2023-03-08T23:01:26.497Z,23.10
2023-03-08T23:03:55.278Z,29.90
2023-03-08T23:06:28.471Z,27.08
2023-03-08T23:08:57.147Z,32.83
2023-03-08T23:11:24.911Z,33.20
2023-03-08T23:13:52.875Z,31.98
2023-03-08T23:16:20.806Z,28.58
2023-03-08T23:18:49.257Z,36.38
2023-03-08T23:21:18.035Z,30.83
2023-03-08T23:23:45.706Z,35.03
2023-03-08T23:26:15.983Z,31.33
2023-03-08T23:28:43.763Z,32.65
2023-03-08T23:31:16.769Z,37.67
2023-03-08T23:33:45.827Z,42.38
2023-03-08T23:36:14.443Z,40.33
2023-03-08T23:38:42.295Z,37.33
2023-03-08T23:41:10.547Z,42.67
2023-03-08T23:43:39.011Z,42.13
2023-03-08T23:46:07.905Z,34.72
2023-03-08T23:48:36.465Z,37.17
2023-03-08T23:51:08.042Z,36.72
2023-03-08T23:53:35.666Z,35.25
2023-03-08T23:56:04.700Z,36.38
2023-03-08T23:58:32.701Z,30.13
